createdAt,value
2023-04-21T00:00:09.725Z,-3.69
2023-04-21T00:02:42.376Z,-3.53
2023-04-21T00:05:13.133Z,-3.44
2023-04-21T00:07:42.385Z,-3.47
2023-04-21T00:10:12.762Z,-3.55
2023-04-21T00:12:41.977Z,-3.53
2023-04-21T00:15:11.155Z,-3.52
2023-04-21T00:17:40.214Z,-3.43
2023-04-21T00:20:11.133Z,-3.24
2023-04-21T00:22:39.932Z,-3.12
2023-04-21T00:25:09.115Z,-2.89
2023-04-21T00:27:38.107Z,-2.59
2023-04-21T00:30:07.577Z,-2.45
2023-04-21T00:32:39.359Z,-2.50
2023-04-21T00:35:09.204Z,-2.52
2023-04-21T00:37:38.515Z,-2.45
2023-04-21T00:40:08.142Z,-2.28
2023-04-21T00:42:37.084Z,-2.12
2023-04-21T00:45:06.479Z,-2.09
2023-04-21T00:47:35.610Z,-2.21
2023-04-21T00:50:05.147Z,-2.30
2023-04-21T00:52:35.869Z,-2.14
2023-04-21T00:55:05.645Z,-1.79
2023-04-21T00:57:36.600Z,-1.48
2023-04-21T01:00:09.572Z,-1.11
2023-04-21T01:02:40.843Z,-0.83
2023-04-21T01:05:10.609Z,-0.81
2023-04-21T01:07:40.966Z,-0.99
2023-04-21T01:10:10.192Z,-1.17
2023-04-21T01:12:46.820Z,-1.39
2023-04-21T01:15:17.899Z,-1.61
2023-04-21T01:17:46.777Z,-2.13
2023-04-21T01:20:16.533Z,-2.48
2023-04-21T01:22:45.890Z,-2.58
2023-04-21T01:25:14.703Z,-2.47
2023-04-21T01:27:43.477Z,-2.39
2023-04-21T01:30:12.480Z,-2.43
2023-04-21T01:32:41.518Z,-2.56
2023-04-21T01:35:10.836Z,-2.64
2023-04-21T01:37:40.967Z,-2.61
2023-04-21T01:40:11.255Z,-2.59
2023-04-21T01:42:43.908Z,-2.61
2023-04-21T01:45:13.772Z,-2.61
2023-04-21T01:47:42.653Z,-2.47
2023-04-21T01:50:11.923Z,-2.11
2023-04-21T01:52:43.975Z,-1.98
2023-04-21T01:55:12.809Z,-2.09
2023-04-21T01:57:42.253Z,-1.40
2023-04-21T02:00:12.731Z,0.47
2023-04-21T02:02:44.525Z,2.34
2023-04-21T02:05:15.540Z,3.73
2023-04-21T02:07:44.379Z,5.03
2023-04-21T02:10:13.600Z,6.17
2023-04-21T02:12:45.277Z,6.88
2023-04-21T02:15:14.121Z,6.12
2023-04-21T02:18:02.860Z,4.56
2023-04-21T02:20:31.832Z,3.27
2023-04-21T02:23:00.683Z,2.25
2023-04-21T02:25:30.677Z,2.46
2023-04-21T02:27:59.518Z,4.27
2023-04-21T02:30:29.344Z,6.30
2023-04-21T02:32:58.504Z,7.37
2023-04-21T02:35:27.961Z,7.01
2023-04-21T02:37:56.743Z,5.56
2023-04-21T02:40:25.516Z,3.89
2023-04-21T02:42:54.459Z,2.31
2023-04-21T02:45:23.300Z,1.10
2023-04-21T02:47:52.926Z,0.24
2023-04-21T02:50:21.976Z,-0.47
2023-04-21T02:52:50.812Z,-1.05
2023-04-21T02:55:19.640Z,-1.47
2023-04-21T02:57:49.040Z,-1.89
2023-04-21T03:00:18.848Z,-2.13
2023-04-21T03:02:48.048Z,-2.07
2023-04-21T03:05:18.388Z,-1.92
2023-04-21T03:07:47.833Z,-1.32
2023-04-21T03:10:16.588Z,-0.70
2023-04-21T03:12:45.327Z,-0.53
2023-04-21T03:15:14.934Z,-0.65
2023-04-21T03:17:44.693Z,-0.66
2023-04-21T03:20:13.640Z,-0.49
2023-04-21T03:22:42.628Z,-0.37
2023-04-21T03:25:12.524Z,0.58
2023-04-21T03:27:41.449Z,2.53
2023-04-21T03:30:11.220Z,4.21
2023-04-21T03:32:40.059Z,5.85
2023-04-21T03:35:09.004Z,6.77
2023-04-21T03:37:37.928Z,7.37
2023-04-21T03:40:07.818Z,6.91
2023-04-21T03:42:36.913Z,8.01
2023-04-21T03:45:08.504Z,9.15
2023-04-21T03:47:38.141Z,9.11
2023-04-21T03:50:07.597Z,9.82
2023-04-21T03:52:36.520Z,9.52
2023-04-21T03:55:05.916Z,8.26
2023-04-21T03:57:34.710Z,6.23
2023-04-21T04:00:05.943Z,4.80
2023-04-21T04:02:44.431Z,3.60
2023-04-21T04:05:13.637Z,2.94
2023-04-21T04:07:42.699Z,3.77
2023-04-21T04:10:12.504Z,6.93
2023-04-21T04:12:41.453Z,9.01
2023-04-21T04:15:10.553Z,8.02
2023-04-21T04:17:39.498Z,6.06
2023-04-21T04:20:09.161Z,5.50
2023-04-21T04:22:38.008Z,6.24
2023-04-21T04:25:07.019Z,6.61
2023-04-21T04:27:36.249Z,5.54
2023-04-21T04:30:06.293Z,4.37
2023-04-21T04:32:35.232Z,4.00
2023-04-21T04:35:04.572Z,5.62
2023-04-21T04:37:35.105Z,8.52
2023-04-21T04:40:10.599Z,11.18
2023-04-21T04:42:40.723Z,13.62
2023-04-21T04:45:10.161Z,14.89
2023-04-21T04:47:39.114Z,15.94
2023-04-21T04:50:08.345Z,16.35
2023-04-21T04:52:37.401Z,13.86
2023-04-21T04:55:06.607Z,11.84
2023-04-21T04:57:35.594Z,10.93
2023-04-21T05:00:09.026Z,9.85
2023-04-21T05:02:39.628Z,8.56
2023-04-21T05:05:08.922Z,7.30
2023-04-21T05:07:37.921Z,5.63
2023-04-21T05:10:07.086Z,3.89
2023-04-21T05:12:35.963Z,3.62
2023-04-21T05:15:06.327Z,6.47
2023-04-21T05:17:35.569Z,9.67
2023-04-21T05:20:08.763Z,12.48
2023-04-21T05:22:41.685Z,14.79
2023-04-21T05:25:18.236Z,16.60
2023-04-21T05:27:47.098Z,17.83
2023-04-21T05:30:15.974Z,17.15
2023-04-21T05:32:44.938Z,14.27
2023-04-21T05:35:13.837Z,11.64
2023-04-21T05:37:42.691Z,9.80
2023-04-21T05:40:11.908Z,8.00
2023-04-21T05:42:40.879Z,6.66
2023-04-21T05:45:09.752Z,5.68
2023-04-21T05:47:39.639Z,5.77
2023-04-21T05:50:09.331Z,8.28
2023-04-21T05:52:38.574Z,11.69
2023-04-21T05:55:07.925Z,13.18
2023-04-21T05:57:36.943Z,11.57
2023-04-21T06:00:07.846Z,9.34
2023-04-21T06:02:37.230Z,7.22
2023-04-21T06:05:07.176Z,5.79
2023-04-21T06:07:37.955Z,4.67
2023-04-21T06:10:07.791Z,3.82
2023-04-21T06:12:36.692Z,3.56
2023-04-21T06:15:06.400Z,5.30
2023-04-21T06:17:35.218Z,8.11
2023-04-21T06:20:04.972Z,10.27
2023-04-21T06:22:34.236Z,9.44
2023-04-21T06:25:03.066Z,8.25
2023-04-21T06:27:32.339Z,8.15
2023-04-21T06:30:01.136Z,9.71
2023-04-21T06:32:33.467Z,11.24
2023-04-21T06:35:02.673Z,12.33
2023-04-21T06:37:33.675Z,13.25
2023-04-21T06:40:02.607Z,14.80
2023-04-21T06:42:32.685Z,15.88
2023-04-21T06:45:01.614Z,16.73
2023-04-21T06:47:34.685Z,17.13
2023-04-21T06:50:04.066Z,17.70
2023-04-21T06:52:33.129Z,18.42
2023-04-21T06:55:02.112Z,18.79
2023-04-21T06:57:32.662Z,18.55
2023-04-21T07:00:01.579Z,16.19
2023-04-21T07:02:34.951Z,13.11
2023-04-21T07:05:04.646Z,10.15
2023-04-21T07:07:34.137Z,7.92
2023-04-21T07:10:03.212Z,6.77
2023-04-21T07:12:33.013Z,7.42
2023-04-21T07:15:02.029Z,8.18
2023-04-21T07:17:33.239Z,8.43
2023-04-21T07:20:02.374Z,8.57
2023-04-21T07:22:32.137Z,7.68
2023-04-21T07:25:01.146Z,6.40
2023-04-21T07:27:30.681Z,7.22
2023-04-21T07:29:59.602Z,9.53
2023-04-21T07:32:28.497Z,12.21
2023-04-21T07:34:57.489Z,13.28
2023-04-21T07:37:27.702Z,12.23
2023-04-21T07:39:56.558Z,10.90
2023-04-21T07:42:27.375Z,9.18
2023-04-21T07:44:56.773Z,7.71
2023-04-21T07:47:25.799Z,6.48
2023-04-21T07:49:54.713Z,6.00
2023-04-21T07:52:23.815Z,5.96
2023-04-21T07:54:52.809Z,6.06
2023-04-21T07:57:21.790Z,7.70
2023-04-21T07:59:50.811Z,9.68
2023-04-21T08:02:20.870Z,10.85
2023-04-21T08:04:50.295Z,11.26
2023-04-21T08:07:19.164Z,11.01
2023-04-21T08:09:48.055Z,10.63
2023-04-21T08:12:17.016Z,9.56
2023-04-21T08:14:46.038Z,7.81
2023-04-21T08:17:15.159Z,6.68
2023-04-21T08:19:44.251Z,6.58
2023-04-21T08:22:13.106Z,6.82
2023-04-21T08:24:41.875Z,6.36
2023-04-21T08:27:10.876Z,5.61
2023-04-21T08:29:39.684Z,5.07
2023-04-21T08:32:08.804Z,4.53
2023-04-21T08:34:37.869Z,4.22
2023-04-21T08:37:06.706Z,4.17
2023-04-21T08:39:35.620Z,4.03
2023-04-21T08:42:05.713Z,3.55
2023-04-21T08:44:34.528Z,3.21
2023-04-21T08:47:06.952Z,3.15
2023-04-21T08:49:38.036Z,3.47
2023-04-21T08:52:07.255Z,3.73
2023-04-21T08:54:39.686Z,3.88
2023-04-21T08:57:15.346Z,3.90
2023-04-21T08:59:46.088Z,3.81
2023-04-21T09:02:20.597Z,3.72
2023-04-21T09:04:53.073Z,3.34
2023-04-21T09:07:34.503Z,3.11
2023-04-21T09:10:05.304Z,3.34
2023-04-21T09:12:35.339Z,3.29
2023-04-21T09:15:07.479Z,2.98
2023-04-21T09:17:37.566Z,2.58
2023-04-21T09:20:24.955Z,2.22
2023-04-21T09:22:54.120Z,2.13
2023-04-21T09:25:23.460Z,2.07
2023-04-21T09:27:55.132Z,2.11
2023-04-21T09:30:24.033Z,2.07
2023-04-21T09:32:58.749Z,2.11
2023-04-21T09:35:40.099Z,2.14
2023-04-21T09:38:13.574Z,2.23
2023-04-21T09:40:42.646Z,2.32
2023-04-21T09:43:12.395Z,2.25
2023-04-21T09:45:41.831Z,1.87
2023-04-21T09:48:12.483Z,1.53
2023-04-21T09:51:20.103Z,1.37
2023-04-21T09:53:34.014Z,1.16
2023-04-21T09:56:05.075Z,1.12
2023-04-21T09:58:54.190Z,1.27
2023-04-21T10:01:28.761Z,1.46
2023-04-21T10:04:00.104Z,1.65
2023-04-21T10:06:29.494Z,1.61
2023-04-21T10:08:59.582Z,1.59
2023-04-21T10:11:28.660Z,1.78
2023-04-21T10:13:57.688Z,1.99
2023-04-21T10:16:27.117Z,2.10
2023-04-21T10:18:56.196Z,2.04
2023-04-21T10:21:25.210Z,1.96
2023-04-21T10:23:55.089Z,2.06
2023-04-21T10:26:37.027Z,2.03
2023-04-21T10:29:07.696Z,1.75
2023-04-21T10:31:48.609Z,1.46
2023-04-21T10:34:18.930Z,1.29
2023-04-21T10:36:53.645Z,1.23
2023-04-21T10:39:36.431Z,1.25
2023-04-21T10:42:14.732Z,1.30
2023-04-21T10:44:59.003Z,1.37
2023-04-21T10:47:41.878Z,1.45
2023-04-21T10:50:30.907Z,1.51
2023-04-21T10:53:10.139Z,1.56
2023-04-21T10:55:40.324Z,1.64
2023-04-21T10:58:10.430Z,1.52
2023-04-21T11:00:40.776Z,1.46
2023-04-21T11:03:10.146Z,1.40
2023-04-21T11:05:41.330Z,1.32
2023-04-21T11:08:12.015Z,1.30
2023-04-21T11:10:56.473Z,1.29
2023-04-21T11:13:28.161Z,1.18
2023-04-21T11:16:08.912Z,0.93
2023-04-21T11:18:42.867Z,0.81
2023-04-21T11:21:23.588Z,0.80
2023-04-21T11:23:57.399Z,0.70
2023-04-21T11:26:38.827Z,0.71
2023-04-21T11:29:10.426Z,0.56
2023-04-21T11:31:41.289Z,0.56
2023-04-21T11:34:10.208Z,0.61
2023-04-21T11:36:41.595Z,0.66
2023-04-21T11:39:12.639Z,0.70
2023-04-21T11:41:44.008Z,0.65
2023-04-21T11:44:14.054Z,0.65
2023-04-21T11:46:47.471Z,0.61
2023-04-21T11:49:20.209Z,0.60
2023-04-21T11:51:51.367Z,0.64
2023-04-21T11:54:22.589Z,0.63
2023-04-21T11:56:52.815Z,0.45
2023-04-21T11:59:26.317Z,0.26
2023-04-21T12:01:56.723Z,0.06
2023-04-21T12:04:26.593Z,-0.16
2023-04-21T12:07:00.071Z,-0.36
2023-04-21T12:09:30.390Z,-0.57
2023-04-21T12:12:02.377Z,-0.75
2023-04-21T12:14:35.386Z,-0.97
2023-04-21T12:17:07.781Z,-1.06
2023-04-21T12:19:42.493Z,-1.12
2023-04-21T12:22:13.762Z,-1.20
2023-04-21T12:24:44.688Z,-1.23
2023-04-21T12:27:14.115Z,-1.25
2023-04-21T12:29:43.280Z,-1.22
2023-04-21T12:32:12.285Z,-1.17
2023-04-21T12:34:41.278Z,-1.16
2023-04-21T12:37:10.261Z,-1.21
2023-04-21T12:39:39.071Z,-1.23
2023-04-21T12:42:07.998Z,-1.25
2023-04-21T12:44:37.092Z,-1.28
2023-04-21T12:47:06.069Z,-1.24
2023-04-21T12:49:34.993Z,-1.27
2023-04-21T12:52:06.200Z,-1.18
2023-04-21T12:54:35.205Z,-1.13
2023-04-21T12:57:04.122Z,-1.13
2023-04-21T12:59:34.836Z,-1.12
2023-04-21T13:02:04.407Z,-1.10
2023-04-21T13:04:34.187Z,-1.12
2023-04-21T13:07:03.259Z,-1.11
2023-04-21T13:09:33.180Z,-1.12
2023-04-21T13:12:02.631Z,-1.11
2023-04-21T13:14:32.315Z,-1.12
2023-04-21T13:17:02.580Z,-1.12
2023-04-21T13:19:31.936Z,-1.13
2023-04-21T13:22:01.355Z,-1.14
2023-04-21T13:24:30.461Z,-1.15
2023-04-21T13:26:59.992Z,-1.15
2023-04-21T13:29:34.700Z,-1.14
2023-04-21T13:32:06.780Z,-1.15
2023-04-21T13:34:36.924Z,-1.12
2023-04-21T13:37:06.580Z,-1.11
2023-04-21T13:39:35.501Z,-1.13
2023-04-21T13:42:04.599Z,-1.19
2023-04-21T13:44:33.964Z,-1.33
2023-04-21T13:47:03.124Z,-1.44
2023-04-21T13:49:32.611Z,-1.61
2023-04-21T13:52:01.777Z,-1.74
2023-04-21T13:54:31.223Z,-1.90
2023-04-21T13:57:01.866Z,-2.10
2023-04-21T13:59:31.188Z,-2.21
2023-04-21T14:02:01.267Z,-2.31
2023-04-21T14:04:30.538Z,-2.41
2023-04-21T14:06:59.537Z,-2.51
2023-04-21T14:09:28.911Z,-2.59
2023-04-21T14:11:57.789Z,-2.69
2023-04-21T14:14:37.760Z,-2.76
2023-04-21T14:17:08.692Z,-2.83
2023-04-21T14:19:37.554Z,-2.93
2023-04-21T14:22:06.475Z,-3.02
2023-04-21T14:24:35.263Z,-3.07
2023-04-21T14:27:04.378Z,-3.14
2023-04-21T14:29:33.689Z,-3.16
2023-04-21T14:32:02.807Z,-3.20
2023-04-21T14:34:31.862Z,-3.25
2023-04-21T14:37:01.267Z,-3.30
2023-04-21T14:39:30.246Z,-3.34
2023-04-21T14:41:59.106Z,-3.39
2023-04-21T14:44:28.003Z,-3.45
2023-04-21T14:47:08.489Z,-3.48
2023-04-21T14:49:39.971Z,-3.54
2023-04-21T14:52:09.062Z,-3.55
2023-04-21T14:54:38.082Z,-3.54
2023-04-21T14:57:20.061Z,-3.53
2023-04-21T14:59:51.987Z,-3.49
2023-04-21T15:02:23.053Z,-3.42
2023-04-21T15:04:52.477Z,-3.25
2023-04-21T15:07:23.974Z,-3.10
2023-04-21T15:09:55.875Z,-2.95
2023-04-21T15:12:27.017Z,-2.84
2023-04-21T15:14:57.387Z,-2.79
2023-04-21T15:17:27.188Z,-2.86
2023-04-21T15:19:56.157Z,-2.94
2023-04-21T15:22:25.644Z,-3.04
2023-04-21T15:24:54.859Z,-3.13
2023-04-21T15:27:23.852Z,-3.19
2023-04-21T15:29:54.593Z,-3.18
2023-04-21T15:32:23.568Z,-3.20
2023-04-21T15:34:53.259Z,-3.21
2023-04-21T15:37:24.958Z,-3.19
2023-04-21T15:39:54.458Z,-3.14
2023-04-21T15:42:24.975Z,-3.13
2023-04-21T15:44:54.272Z,-3.13
2023-04-21T15:47:23.684Z,-3.12
2023-04-21T15:49:52.600Z,-3.10
2023-04-21T15:52:23.808Z,-3.07
2023-04-21T15:54:52.727Z,-3.03
2023-04-21T15:57:21.783Z,-3.01
2023-04-21T15:59:50.733Z,-2.99
2023-04-21T16:02:22.184Z,-2.99
2023-04-21T16:04:51.404Z,-2.95
2023-04-21T16:07:20.903Z,-2.92
2023-04-21T16:09:51.133Z,-2.85
2023-04-21T16:12:20.216Z,-2.80
2023-04-21T16:14:57.795Z,-2.77
2023-04-21T16:17:34.299Z,-2.80
2023-04-21T16:20:06.746Z,-2.78
2023-04-21T16:22:36.009Z,-2.82
2023-04-21T16:25:05.542Z,-2.89
2023-04-21T16:27:34.399Z,-2.92
2023-04-21T16:30:07.416Z,-2.92
2023-04-21T16:32:38.079Z,-2.92
2023-04-21T16:35:10.531Z,-2.96
2023-04-21T16:37:44.659Z,-2.94
2023-04-21T16:40:14.648Z,-2.98
2023-04-21T16:42:43.929Z,-3.02
2023-04-21T16:45:13.051Z,-3.10
2023-04-21T16:47:43.195Z,-3.08
2023-04-21T16:50:12.427Z,-3.18
2023-04-21T16:52:41.480Z,-3.23
2023-04-21T16:55:11.092Z,-3.25
2023-04-21T16:57:40.057Z,-3.20
2023-04-21T17:00:11.426Z,-3.09
2023-04-21T17:02:40.781Z,-2.93
2023-04-21T17:05:10.335Z,-2.82
2023-04-21T17:07:40.238Z,-2.70
2023-04-21T17:10:09.781Z,-2.65
2023-04-21T17:12:39.588Z,-2.61
2023-04-21T17:15:09.020Z,-2.57
2023-04-21T17:17:45.355Z,-2.56
2023-04-21T17:20:15.791Z,-2.59
2023-04-21T17:22:45.088Z,-2.60
2023-04-21T17:25:13.953Z,-2.51
2023-04-21T17:27:43.716Z,-2.49
2023-04-21T17:30:13.422Z,-2.55
2023-04-21T17:32:42.611Z,-2.63
2023-04-21T17:35:11.507Z,-2.76
2023-04-21T17:37:40.553Z,-2.89
2023-04-21T17:40:10.180Z,-2.99
2023-04-21T17:42:40.070Z,-3.05
2023-04-21T17:45:09.384Z,-3.12
2023-04-21T17:47:38.246Z,-3.17
2023-04-21T17:50:10.428Z,-3.24
2023-04-21T17:52:40.665Z,-3.29
2023-04-21T17:55:09.739Z,-3.36
2023-04-21T17:57:38.423Z,-3.42
2023-04-21T18:00:09.411Z,-3.46
2023-04-21T18:02:38.504Z,-3.50
2023-04-21T18:05:07.854Z,-3.48
2023-04-21T18:07:37.024Z,-3.37
2023-04-21T18:10:06.238Z,-3.25
2023-04-21T18:12:35.085Z,-3.11
2023-04-21T18:15:04.178Z,-2.99
2023-04-21T18:17:35.001Z,-2.87
2023-04-21T18:20:05.322Z,-2.74
2023-04-21T18:22:34.962Z,-2.64
2023-04-21T18:25:04.034Z,-2.50
2023-04-21T18:27:33.447Z,-2.43
2023-04-21T18:30:02.270Z,-2.39
2023-04-21T18:32:35.361Z,-2.28
2023-04-21T18:35:06.386Z,-2.27
2023-04-21T18:37:35.388Z,-2.28
2023-04-21T18:40:06.186Z,-2.33
2023-04-21T18:42:35.292Z,-2.44
2023-04-21T18:45:04.743Z,-2.54
2023-04-21T18:47:35.446Z,-2.58
2023-04-21T18:50:07.102Z,-2.59
2023-04-21T18:52:35.897Z,-2.61
2023-04-21T18:55:05.045Z,-2.65
2023-04-21T18:57:34.011Z,-2.64
2023-04-21T19:00:03.018Z,-2.60
2023-04-21T19:02:35.144Z,-2.61
2023-04-21T19:05:04.436Z,-2.63
2023-04-21T19:07:36.501Z,-2.66
2023-04-21T19:10:06.399Z,-2.69
2023-04-21T19:12:35.305Z,-2.67
2023-04-21T19:15:04.755Z,-2.73
2023-04-21T19:17:34.261Z,-2.78
2023-04-21T19:20:03.361Z,-2.84
2023-04-21T19:22:36.674Z,-2.86
2023-04-21T19:25:06.731Z,-2.91
2023-04-21T19:27:36.359Z,-2.91
2023-04-21T19:30:06.386Z,-2.90
2023-04-21T19:32:35.951Z,-2.87
2023-04-21T19:35:05.070Z,-2.95
2023-04-21T19:37:35.285Z,-3.03
2023-04-21T19:40:06.964Z,-3.08
2023-04-21T19:42:40.222Z,-3.08
2023-04-21T19:45:11.610Z,-3.13
2023-04-21T19:47:40.524Z,-3.10
2023-04-21T19:50:10.457Z,-3.09
2023-04-21T19:52:39.276Z,-3.07
2023-04-21T19:55:08.357Z,-3.08
2023-04-21T19:57:38.036Z,-3.18
2023-04-21T20:00:09.966Z,-3.31
2023-04-21T20:02:42.905Z,-3.40
2023-04-21T20:05:12.084Z,-3.51
2023-04-21T20:07:41.131Z,-3.60
2023-04-21T20:10:10.637Z,-3.70
2023-04-21T20:12:39.441Z,-3.65
2023-04-21T20:15:12.167Z,-3.62
2023-04-21T20:17:42.458Z,-3.65
2023-04-21T20:20:11.593Z,-3.65
2023-04-21T20:22:41.107Z,-3.65
2023-04-21T20:25:11.393Z,-3.66
2023-04-21T20:27:40.385Z,-3.61
2023-04-21T20:30:10.127Z,-3.54
2023-04-21T20:32:38.947Z,-3.51
2023-04-21T20:35:08.710Z,-3.63
2023-04-21T20:37:37.967Z,-3.70
2023-04-21T20:40:12.172Z,-3.74
2023-04-21T20:42:45.487Z,-3.74
2023-04-21T20:45:14.313Z,-3.70
2023-04-21T20:47:43.307Z,-3.62
2023-04-21T20:50:12.365Z,-3.52
2023-04-21T20:52:41.193Z,-3.49
2023-04-21T20:55:10.523Z,-3.51
2023-04-21T20:57:39.745Z,-3.47
2023-04-21T21:00:12.965Z,-3.41
2023-04-21T21:02:44.854Z,-3.40
2023-04-21T21:05:13.882Z,-3.34
2023-04-21T21:07:42.902Z,-3.31
2023-04-21T21:10:12.076Z,-3.24
2023-04-21T21:12:40.939Z,-3.18
2023-04-21T21:15:10.297Z,-3.21
2023-04-21T21:17:40.240Z,-3.26
2023-04-21T21:20:09.568Z,-3.42
2023-04-21T21:22:38.564Z,-3.46
2023-04-21T21:25:07.675Z,-3.42
2023-04-21T21:27:36.586Z,-3.38
2023-04-21T21:30:06.303Z,-3.33
2023-04-21T21:32:36.409Z,-3.31
2023-04-21T21:35:07.000Z,-3.31
2023-04-21T21:37:36.676Z,-3.31
2023-04-21T21:40:06.870Z,-3.30
2023-04-21T21:42:35.587Z,-3.28
2023-04-21T21:45:05.275Z,-3.29
2023-04-21T21:47:39.519Z,-3.29
2023-04-21T21:50:13.127Z,-3.29
2023-04-21T21:52:43.109Z,-3.30
2023-04-21T21:55:11.827Z,-3.30
2023-04-21T21:57:41.195Z,-3.31
2023-04-21T22:00:14.641Z,-3.28
2023-04-21T22:02:43.988Z,-3.25
2023-04-21T22:05:14.354Z,-3.26
2023-04-21T22:07:43.496Z,-3.24
2023-04-21T22:10:12.377Z,-3.26
2023-04-21T22:12:41.762Z,-3.26
2023-04-21T22:15:11.228Z,-3.40
2023-04-21T22:17:40.261Z,-3.44
2023-04-21T22:20:10.110Z,-3.44
2023-04-21T22:22:38.905Z,-3.43
2023-04-21T22:25:08.529Z,-3.43
2023-04-21T22:27:37.353Z,-3.35
2023-04-21T22:30:07.212Z,-3.25
2023-04-21T22:32:36.280Z,-3.22
2023-04-21T22:35:05.590Z,-3.12
2023-04-21T22:37:35.448Z,-2.98
2023-04-21T22:40:05.021Z,-2.84
2023-04-21T22:42:33.927Z,-2.78
2023-04-21T22:45:04.552Z,-2.69
2023-04-21T22:47:35.285Z,-2.71
2023-04-21T22:50:04.975Z,-2.75
2023-04-21T22:52:33.788Z,-2.64
2023-04-21T22:55:06.183Z,-2.64
2023-04-21T22:57:38.009Z,-2.57
2023-04-21T23:00:11.907Z,-2.52
2023-04-21T23:02:42.655Z,-2.55
2023-04-21T23:05:12.084Z,-2.53
2023-04-21T23:07:40.913Z,-2.51
2023-04-21T23:10:10.198Z,-2.47
2023-04-21T23:12:39.147Z,-2.46
2023-04-21T23:15:08.467Z,-2.50
2023-04-21T23:17:37.970Z,-2.51
2023-04-21T23:20:07.487Z,-2.52
2023-04-21T23:22:36.263Z,-2.45
2023-04-21T23:25:05.409Z,-2.37
2023-04-21T23:27:34.413Z,-2.33
2023-04-21T23:30:03.443Z,-2.31
2023-04-21T23:32:33.548Z,-2.30
2023-04-21T23:35:02.570Z,-2.33
2023-04-21T23:37:32.312Z,-2.17
2023-04-21T23:40:01.911Z,-2.08
2023-04-21T23:42:32.661Z,-1.96
2023-04-21T23:45:02.689Z,-1.80
2023-04-21T23:47:33.089Z,-1.74
2023-04-21T23:50:02.081Z,-1.73
2023-04-21T23:52:32.559Z,-1.69
2023-04-21T23:55:01.812Z,-1.69
2023-04-21T23:57:32.910Z,-1.79
